createdAt,value
2022-07-28T00:02:16.808Z,99.90
2022-07-28T00:04:47.046Z,99.90
2022-07-28T00:07:16.053Z,99.90
2022-07-28T00:09:43.044Z,99.90
2022-07-28T00:12:10.101Z,99.90
2022-07-28T00:14:38.207Z,99.90
2022-07-28T00:17:07.809Z,99.90
2022-07-28T00:19:34.750Z,99.90
2022-07-28T00:22:02.723Z,99.90
2022-07-28T00:24:29.748Z,99.90
2022-07-28T00:46:19.072Z,99.90
2022-07-28T00:48:53.819Z,99.90
2022-07-28T00:51:22.923Z,99.90
2022-07-28T00:53:52.629Z,99.90
2022-07-28T00:56:20.686Z,99.90
2022-07-28T00:58:50.582Z,99.90
2022-07-28T01:01:22.148Z,99.90
2022-07-28T01:03:55.129Z,99.90
2022-07-28T01:14:11.336Z,99.90
2022-07-28T01:16:45.283Z,99.90
2022-07-28T01:19:54.807Z,99.90
2022-07-28T01:22:25.379Z,99.90
2022-07-28T01:25:13.706Z,99.90
2022-07-28T01:28:12.935Z,99.90
2022-07-28T01:30:43.336Z,99.90
2022-07-28T01:33:21.976Z,99.90
2022-07-28T01:36:18.779Z,99.90
2022-07-28T01:38:47.669Z,99.90
2022-07-28T01:41:21.438Z,99.90
2022-07-28T01:44:02.468Z,99.90
2022-07-28T01:46:29.860Z,99.90
2022-07-28T01:48:58.372Z,99.90
2022-07-28T01:51:28.660Z,99.90
2022-07-28T01:53:58.535Z,99.90
2022-07-28T01:56:28.408Z,99.90
2022-07-28T01:59:00.017Z,99.90
2022-07-28T02:01:27.784Z,99.90
2022-07-28T02:03:59.336Z,99.90
2022-07-28T02:06:27.610Z,99.90
2022-07-28T02:08:56.416Z,99.90
2022-07-28T02:11:40.608Z,99.90
2022-07-28T02:14:20.597Z,99.90
2022-07-28T02:16:51.600Z,99.90
2022-07-28T02:19:19.564Z,99.90
2022-07-28T02:21:50.479Z,99.90
2022-07-28T02:24:21.240Z,99.90
2022-07-28T02:26:53.660Z,99.90
2022-07-28T02:29:49.113Z,99.90
2022-07-28T02:32:37.624Z,99.90
2022-07-28T02:35:17.316Z,99.90
2022-07-28T02:37:54.243Z,99.90
2022-07-28T02:40:23.446Z,99.90
2022-07-28T02:42:53.266Z,99.90
2022-07-28T02:45:22.788Z,99.90
2022-07-28T02:47:53.548Z,99.90
2022-07-28T02:50:24.474Z,99.90
2022-07-28T02:52:53.015Z,99.90
2022-07-28T02:55:20.277Z,99.90
2022-07-28T02:57:50.956Z,99.90
2022-07-28T03:00:20.511Z,99.90
2022-07-28T03:02:48.622Z,99.90
2022-07-28T03:05:18.807Z,99.90
2022-07-28T03:07:51.167Z,99.90
2022-07-28T03:10:33.398Z,99.90
2022-07-28T03:13:03.604Z,99.90
2022-07-28T03:15:34.072Z,99.90
2022-07-28T03:18:04.193Z,99.90
2022-07-28T03:20:35.461Z,99.90
2022-07-28T03:23:02.599Z,99.90
2022-07-28T03:25:46.145Z,99.90
2022-07-28T03:28:19.552Z,99.90
2022-07-28T03:30:54.464Z,99.90
2022-07-28T03:33:21.348Z,99.90
2022-07-28T03:35:52.150Z,99.90
2022-07-28T03:38:26.002Z,99.90
2022-07-28T03:40:55.736Z,99.90
2022-07-28T03:43:25.568Z,99.90
2022-07-28T03:45:52.693Z,99.90
2022-07-28T03:48:23.513Z,99.90
2022-07-28T03:50:50.406Z,99.90
2022-07-28T03:53:22.700Z,99.90
2022-07-28T03:55:53.633Z,99.90
2022-07-28T03:58:22.383Z,99.90
2022-07-28T04:00:53.603Z,99.90
2022-07-28T04:03:35.324Z,99.90
2022-07-28T04:06:07.960Z,99.90
2022-07-28T04:08:35.149Z,99.90
2022-07-28T04:11:02.125Z,99.90
2022-07-28T04:13:32.132Z,99.90
2022-07-28T04:16:01.068Z,99.90
2022-07-28T04:18:28.154Z,99.90
2022-07-28T04:20:55.979Z,99.90
2022-07-28T04:23:24.132Z,99.90
2022-07-28T04:25:51.013Z,99.90
2022-07-28T04:28:17.888Z,99.90
2022-07-28T04:30:44.965Z,99.90
2022-07-28T04:33:13.326Z,99.90
2022-07-28T04:35:40.749Z,99.90
2022-07-28T04:38:07.959Z,99.90
2022-07-28T04:40:34.966Z,99.90
2022-07-28T04:43:03.766Z,99.90
2022-07-28T04:45:30.817Z,99.90
2022-07-28T04:47:58.843Z,99.90
2022-07-28T04:50:28.152Z,99.90
2022-07-28T04:52:57.657Z,99.90
2022-07-28T04:55:26.235Z,99.90
2022-07-28T04:57:58.649Z,99.90
2022-07-28T05:00:25.857Z,99.90
2022-07-28T05:02:53.898Z,99.90
2022-07-28T05:05:20.708Z,99.90
2022-07-28T05:07:47.783Z,99.90
2022-07-28T05:10:15.782Z,99.90
2022-07-28T05:12:42.831Z,99.90
2022-07-28T05:15:10.285Z,99.90
2022-07-28T05:17:37.444Z,99.90
2022-07-28T05:20:05.923Z,99.90
2022-07-28T05:22:51.101Z,99.90
2022-07-28T05:25:22.890Z,99.90
2022-07-28T05:27:52.044Z,99.90
2022-07-28T05:30:20.334Z,99.90
2022-07-28T05:32:51.465Z,99.90
2022-07-28T05:35:21.119Z,99.90
2022-07-28T05:37:50.570Z,99.90
2022-07-28T05:40:18.447Z,99.90
2022-07-28T05:42:53.759Z,99.90
2022-07-28T05:45:30.975Z,99.90
2022-07-28T05:48:00.200Z,99.90
2022-07-28T05:50:27.229Z,99.90
2022-07-28T05:52:55.424Z,99.90
2022-07-28T05:55:22.566Z,99.90
2022-07-28T05:57:55.288Z,99.90
2022-07-28T06:00:23.145Z,99.90
2022-07-28T06:02:53.393Z,99.90
2022-07-28T06:05:23.225Z,99.90
2022-07-28T06:07:51.712Z,99.90
2022-07-28T06:10:24.140Z,99.90
2022-07-28T06:12:55.191Z,99.90
2022-07-28T06:15:26.548Z,99.90
2022-07-28T06:18:03.426Z,99.90
2022-07-28T06:20:31.623Z,99.90
2022-07-28T06:22:59.797Z,99.90
2022-07-28T06:25:31.414Z,99.90
2022-07-28T06:28:00.548Z,99.90
2022-07-28T06:30:31.594Z,99.90
2022-07-28T06:33:07.163Z,99.90
2022-07-28T06:35:44.981Z,99.90
2022-07-28T06:38:15.193Z,99.90
2022-07-28T06:40:46.238Z,99.90
2022-07-28T06:43:16.173Z,99.90
2022-07-28T06:45:45.090Z,99.90
2022-07-28T06:48:20.297Z,99.80
2022-07-28T06:50:47.480Z,99.00
2022-07-28T06:53:14.447Z,98.60
2022-07-28T06:55:41.458Z,98.40
2022-07-28T06:58:08.535Z,97.90
2022-07-28T07:00:36.719Z,97.20
2022-07-28T07:03:04.028Z,96.00
2022-07-28T07:05:32.553Z,95.40
2022-07-28T07:08:00.111Z,94.20
2022-07-28T07:10:27.531Z,93.00
2022-07-28T07:12:58.689Z,93.10
2022-07-28T07:15:25.654Z,93.50
2022-07-28T07:17:54.427Z,94.80
2022-07-28T07:20:21.743Z,94.40
2022-07-28T07:22:51.415Z,93.60
2022-07-28T07:25:19.538Z,93.60
2022-07-28T07:27:46.767Z,94.10
2022-07-28T07:30:15.690Z,94.60
2022-07-28T07:32:43.565Z,94.00
2022-07-28T07:35:12.182Z,93.30
2022-07-28T07:37:40.276Z,93.00
2022-07-28T07:40:07.862Z,91.90
2022-07-28T07:42:34.814Z,91.70
2022-07-28T07:45:01.648Z,91.70
2022-07-28T07:47:28.597Z,91.90
2022-07-28T07:49:55.473Z,92.20
2022-07-28T07:52:22.257Z,94.10
2022-07-28T07:54:49.189Z,93.20
2022-07-28T07:57:16.013Z,93.00
2022-07-28T07:59:43.056Z,93.10
2022-07-28T08:02:10.146Z,93.00
2022-07-28T08:04:38.523Z,93.10
2022-07-28T08:07:06.675Z,93.40
2022-07-28T08:09:34.805Z,93.50
2022-07-28T08:12:02.068Z,93.70
2022-07-28T08:14:29.157Z,94.00
2022-07-28T08:16:56.928Z,94.20
2022-07-28T08:19:24.133Z,94.30
2022-07-28T08:21:52.041Z,94.30
2022-07-28T08:24:27.831Z,95.00
2022-07-28T08:27:04.421Z,95.60
2022-07-28T08:29:31.798Z,95.40
2022-07-28T08:31:58.958Z,94.30
2022-07-28T08:34:31.083Z,93.30
2022-07-28T08:37:01.917Z,92.90
2022-07-28T08:39:30.659Z,93.00
2022-07-28T08:42:17.705Z,93.40
2022-07-28T08:44:55.155Z,93.30
2022-07-28T08:47:23.481Z,93.30
2022-07-28T08:49:56.650Z,92.70
2022-07-28T08:52:26.252Z,93.50
2022-07-28T08:54:55.862Z,93.00
2022-07-28T08:57:34.642Z,92.30
2022-07-28T09:00:02.198Z,92.20
2022-07-28T09:02:31.236Z,92.00
2022-07-28T09:05:03.769Z,92.70
2022-07-28T09:07:32.558Z,92.50
2022-07-28T09:10:02.763Z,93.40
2022-07-28T09:12:30.035Z,91.40
2022-07-28T09:14:57.123Z,91.60
2022-07-28T09:17:25.411Z,90.70
2022-07-28T09:19:52.680Z,90.10
2022-07-28T09:22:19.878Z,90.40
2022-07-28T09:24:52.190Z,90.20
2022-07-28T09:27:25.275Z,89.60
2022-07-28T09:30:00.045Z,88.10
2022-07-28T09:32:27.661Z,88.60
2022-07-28T09:34:54.814Z,86.40
2022-07-28T09:37:27.980Z,85.10
2022-07-28T09:39:59.377Z,85.60
2022-07-28T09:42:26.924Z,84.50
2022-07-28T09:45:24.816Z,81.60
2022-07-28T09:48:13.667Z,81.10
2022-07-28T09:50:41.903Z,81.10
2022-07-28T09:53:24.402Z,83.70
2022-07-28T09:56:00.158Z,87.80
2022-07-28T09:58:29.558Z,85.50
2022-07-28T10:01:08.752Z,85.60
2022-07-28T10:03:37.397Z,84.00
2022-07-28T10:06:08.531Z,84.90
2022-07-28T10:08:48.370Z,84.20
2022-07-28T10:11:21.105Z,84.70
2022-07-28T10:13:57.957Z,83.60
2022-07-28T10:16:28.210Z,83.90
2022-07-28T10:18:56.314Z,84.70
2022-07-28T10:21:24.725Z,84.60
2022-07-28T10:23:54.549Z,83.80
2022-07-28T10:26:29.362Z,83.20
2022-07-28T10:28:57.969Z,81.20
2022-07-28T10:31:34.485Z,82.10
2022-07-28T10:34:02.947Z,81.60
2022-07-28T10:36:32.370Z,79.90
2022-07-28T10:39:13.268Z,79.90
2022-07-28T10:41:42.256Z,79.50
2022-07-28T10:44:14.392Z,80.20
2022-07-28T10:46:42.640Z,81.20
2022-07-28T10:49:11.108Z,81.90
2022-07-28T10:52:00.109Z,81.20
2022-07-28T10:54:30.545Z,81.10
2022-07-28T10:56:59.960Z,82.00
2022-07-28T11:00:13.117Z,81.90
2022-07-28T11:03:14.008Z,82.70
2022-07-28T11:05:42.525Z,81.40
2022-07-28T11:08:28.545Z,82.20
2022-07-28T11:11:05.570Z,79.70
2022-07-28T11:13:41.153Z,83.00
2022-07-28T11:16:14.536Z,83.10
2022-07-28T11:19:36.668Z,83.50
2022-07-28T11:22:18.841Z,82.90
2022-07-28T11:25:17.976Z,82.60
2022-07-28T11:27:51.334Z,81.00
2022-07-28T11:30:36.707Z,82.00
2022-07-28T11:33:09.374Z,80.80
2022-07-28T11:35:54.627Z,79.70
2022-07-28T11:38:24.100Z,81.40
2022-07-28T11:40:53.516Z,80.90
2022-07-28T11:43:35.817Z,82.30
2022-07-28T11:46:09.656Z,81.90
2022-07-28T11:48:46.877Z,81.50
2022-07-28T11:51:14.538Z,80.20
2022-07-28T11:53:53.088Z,78.70
2022-07-28T11:56:36.200Z,79.40
2022-07-28T11:59:05.830Z,76.30
2022-07-28T12:01:36.841Z,77.80
2022-07-28T12:04:13.351Z,76.90
2022-07-28T12:06:42.734Z,76.40
2022-07-28T12:09:10.816Z,78.00
2022-07-28T12:11:42.471Z,78.40
2022-07-28T12:14:12.011Z,78.10
2022-07-28T12:16:41.604Z,78.30
2022-07-28T12:19:09.964Z,78.40
2022-07-28T12:21:46.056Z,78.80
2022-07-28T12:24:18.686Z,79.70
2022-07-28T12:26:49.603Z,79.70
2022-07-28T12:29:17.776Z,78.80
2022-07-28T12:31:59.450Z,78.80
2022-07-28T12:34:29.287Z,78.60
2022-07-28T12:37:04.232Z,78.70
2022-07-28T12:39:36.786Z,78.90
2022-07-28T12:42:08.389Z,78.40
2022-07-28T12:44:49.625Z,79.50
2022-07-28T12:47:24.897Z,79.40
2022-07-28T12:50:15.303Z,79.40
2022-07-28T12:52:45.970Z,77.60
2022-07-28T12:55:24.910Z,79.50
2022-07-28T12:57:52.923Z,79.80
2022-07-28T13:00:25.520Z,80.20
2022-07-28T13:03:00.986Z,78.30
2022-07-28T13:05:53.962Z,78.80
2022-07-28T13:08:21.502Z,76.10
2022-07-28T13:10:57.039Z,76.50
2022-07-28T13:13:25.347Z,76.60
2022-07-28T13:16:12.540Z,74.80
2022-07-28T13:19:19.411Z,74.80
2022-07-28T13:21:59.471Z,75.00
2022-07-28T13:24:30.329Z,76.40
2022-07-28T13:26:59.303Z,76.20
2022-07-28T13:29:26.501Z,76.10
2022-07-28T13:31:55.068Z,77.60
2022-07-28T13:34:22.583Z,77.60
2022-07-28T13:36:50.018Z,76.80
2022-07-28T13:39:17.919Z,77.70
2022-07-28T13:41:56.527Z,78.10
2022-07-28T13:44:30.041Z,78.60
2022-07-28T13:46:59.043Z,76.90
2022-07-28T13:49:30.355Z,76.60
2022-07-28T13:52:06.123Z,76.50
2022-07-28T13:54:39.872Z,74.30
2022-07-28T13:57:07.180Z,74.70
2022-07-28T13:59:35.472Z,75.80
2022-07-28T14:02:05.396Z,76.20
2022-07-28T14:04:32.358Z,76.30
2022-07-28T14:06:59.486Z,76.90
2022-07-28T14:09:26.293Z,78.40
2022-07-28T14:11:53.561Z,77.70
2022-07-28T14:14:25.140Z,77.80
2022-07-28T14:16:54.560Z,79.00
2022-07-28T14:19:38.493Z,78.50
2022-07-28T14:22:12.851Z,77.60
2022-07-28T14:24:41.521Z,78.30
2022-07-28T14:27:08.374Z,78.60
2022-07-28T14:29:37.509Z,78.40
2022-07-28T14:32:04.737Z,77.90
2022-07-28T14:34:31.569Z,77.50
2022-07-28T14:37:03.409Z,77.30
2022-07-28T14:39:35.609Z,77.90
2022-07-28T14:42:02.454Z,76.80
2022-07-28T14:44:29.295Z,76.40
2022-07-28T14:46:56.152Z,76.40
2022-07-28T14:49:23.361Z,76.30
2022-07-28T14:51:51.527Z,77.60
2022-07-28T14:54:19.140Z,78.10
2022-07-28T14:56:46.552Z,78.80
2022-07-28T14:59:16.079Z,76.60
2022-07-28T15:01:48.710Z,76.20
2022-07-28T15:04:16.992Z,75.90
2022-07-28T15:06:47.491Z,76.20
2022-07-28T15:09:15.054Z,76.20
2022-07-28T15:11:42.697Z,75.00
2022-07-28T15:14:09.866Z,75.30
2022-07-28T15:16:40.111Z,75.20
2022-07-28T15:19:10.929Z,76.00
2022-07-28T15:21:42.099Z,76.00
2022-07-28T15:24:09.923Z,76.40
2022-07-28T15:26:37.403Z,75.30
2022-07-28T15:29:05.439Z,75.00
2022-07-28T15:31:32.655Z,75.10
2022-07-28T15:34:00.067Z,75.60
2022-07-28T15:36:27.742Z,75.90
2022-07-28T15:38:59.093Z,75.60
2022-07-28T15:41:26.230Z,75.40
2022-07-28T15:43:53.507Z,75.60
2022-07-28T15:46:20.642Z,75.30
2022-07-28T15:48:50.500Z,74.80
2022-07-28T15:51:19.360Z,74.20
2022-07-28T15:53:56.236Z,74.60
2022-07-28T15:56:23.748Z,74.80
2022-07-28T15:58:53.579Z,74.60
2022-07-28T16:01:22.086Z,75.80
2022-07-28T16:03:50.055Z,74.90
2022-07-28T16:06:17.681Z,74.30
2022-07-28T16:08:47.379Z,74.90
2022-07-28T16:11:20.287Z,74.50
2022-07-28T16:13:49.868Z,74.50
2022-07-28T16:16:17.078Z,72.60
2022-07-28T16:18:44.325Z,73.30
2022-07-28T16:21:11.453Z,74.50
2022-07-28T16:23:39.509Z,74.60
2022-07-28T16:26:08.828Z,75.30
2022-07-28T16:28:36.995Z,75.50
2022-07-28T16:31:04.074Z,75.60
2022-07-28T16:33:33.915Z,75.50
2022-07-28T16:36:02.228Z,75.50
2022-07-28T16:38:30.237Z,75.60
2022-07-28T16:41:00.495Z,76.30
2022-07-28T16:43:27.655Z,76.30
2022-07-28T16:45:58.963Z,77.00
2022-07-28T16:48:26.042Z,77.20
2022-07-28T16:50:56.785Z,77.70
2022-07-28T16:53:26.646Z,78.10
2022-07-28T16:55:56.654Z,78.60
2022-07-28T16:58:24.237Z,78.80
2022-07-28T17:00:53.534Z,78.70
2022-07-28T17:03:20.820Z,78.90
2022-07-28T17:05:55.340Z,78.50
2022-07-28T17:08:32.639Z,79.30
2022-07-28T17:11:02.132Z,79.20
2022-07-28T17:13:29.493Z,79.00
2022-07-28T17:15:59.800Z,79.30
2022-07-28T17:18:26.756Z,79.30
2022-07-28T17:20:56.189Z,79.90
2022-07-28T17:23:24.806Z,80.20
2022-07-28T17:28:43.729Z,81.20
2022-07-28T17:31:15.493Z,81.40
2022-07-28T17:33:42.880Z,81.50
2022-07-28T17:36:09.821Z,81.50
2022-07-28T17:38:44.732Z,81.60
2022-07-28T17:41:11.965Z,81.70
2022-07-28T17:43:45.161Z,81.80
2022-07-28T17:46:14.811Z,82.20
2022-07-28T17:48:53.303Z,82.60
2022-07-28T17:51:24.215Z,82.70
2022-07-28T17:53:51.345Z,82.90
2022-07-28T17:56:23.067Z,82.90
2022-07-28T17:58:53.244Z,83.40
2022-07-28T18:01:27.947Z,83.40
2022-07-28T18:04:00.916Z,83.50
2022-07-28T18:06:34.226Z,83.80
2022-07-28T18:09:06.470Z,83.70
2022-07-28T18:11:56.094Z,84.10
2022-07-28T18:14:32.253Z,83.90
2022-07-28T18:17:02.874Z,85.00
2022-07-28T18:19:30.102Z,85.60
2022-07-28T18:21:58.839Z,90.70
2022-07-28T18:24:33.079Z,90.40
2022-07-28T18:27:05.094Z,91.10
2022-07-28T18:29:38.539Z,86.10
2022-07-28T18:32:12.712Z,86.50
2022-07-28T18:34:45.791Z,86.90
2022-07-28T18:37:15.740Z,87.40
2022-07-28T18:39:42.926Z,87.70
2022-07-28T18:42:10.650Z,88.10
2022-07-28T18:44:39.500Z,88.70
2022-07-28T18:47:08.473Z,90.60
2022-07-28T18:49:37.740Z,91.50
2022-07-28T18:52:06.062Z,92.40
2022-07-28T18:54:36.183Z,92.90
2022-07-28T18:57:03.062Z,93.20
2022-07-28T18:59:29.895Z,93.40
2022-07-28T19:01:57.127Z,93.50
2022-07-28T19:04:23.962Z,93.80
2022-07-28T19:06:51.077Z,94.40
2022-07-28T19:09:19.440Z,94.50
2022-07-28T19:11:48.611Z,94.50
2022-07-28T19:14:16.522Z,93.90
2022-07-28T19:16:44.544Z,94.40
2022-07-28T19:19:16.162Z,95.00
2022-07-28T19:21:43.880Z,95.60
2022-07-28T19:24:14.711Z,95.70
2022-07-28T19:26:43.540Z,95.70
2022-07-28T19:29:10.615Z,95.60
2022-07-28T19:31:37.801Z,95.50
2022-07-28T19:34:07.808Z,95.80
2022-07-28T19:36:36.824Z,96.80
2022-07-28T19:39:04.208Z,97.00
2022-07-28T19:41:31.699Z,97.10
2022-07-28T19:43:58.569Z,97.30
2022-07-28T19:46:26.157Z,97.00
2022-07-28T19:48:54.476Z,97.60
2022-07-28T19:51:23.872Z,98.00
2022-07-28T19:53:53.468Z,98.20
2022-07-28T19:56:20.714Z,99.00
2022-07-28T19:58:51.348Z,99.80
2022-07-28T20:01:19.198Z,99.90
2022-07-28T20:04:01.937Z,99.90
2022-07-28T20:06:31.954Z,99.90
2022-07-28T20:08:59.728Z,99.90
2022-07-28T20:11:27.987Z,99.90
2022-07-28T20:13:57.608Z,99.90
2022-07-28T20:16:29.757Z,99.90
2022-07-28T20:18:59.840Z,99.90
2022-07-28T20:21:26.915Z,99.90
2022-07-28T20:23:55.861Z,99.90
2022-07-28T20:26:29.661Z,99.90
2022-07-28T20:29:01.751Z,99.90
2022-07-28T20:31:29.162Z,99.90
2022-07-28T20:33:57.163Z,99.90
2022-07-28T20:36:29.493Z,99.90
2022-07-28T20:38:57.458Z,99.90
2022-07-28T20:41:24.627Z,99.90
2022-07-28T20:44:11.148Z,99.90
2022-07-28T20:46:38.708Z,99.90
2022-07-28T20:49:05.941Z,99.90
2022-07-28T20:51:33.152Z,99.90
2022-07-28T20:54:00.198Z,99.90
2022-07-28T20:56:28.211Z,99.90
2022-07-28T20:58:58.713Z,99.90
2022-07-28T21:01:30.370Z,99.90
2022-07-28T21:03:57.334Z,99.90
2022-07-28T21:06:24.293Z,99.90
2022-07-28T21:08:51.711Z,99.90
2022-07-28T21:11:18.638Z,99.90
2022-07-28T21:13:47.863Z,99.90
2022-07-28T21:16:18.821Z,99.90
2022-07-28T21:18:45.838Z,99.90
2022-07-28T21:21:18.731Z,99.90
2022-07-28T21:23:45.694Z,99.90
2022-07-28T21:26:13.004Z,99.90
2022-07-28T21:29:02.479Z,99.90
2022-07-28T21:31:29.469Z,99.90
2022-07-28T21:33:56.675Z,99.90
2022-07-28T21:36:26.533Z,99.90
2022-07-28T21:38:56.497Z,99.90
2022-07-28T21:41:25.644Z,99.90
2022-07-28T21:44:00.822Z,99.90
2022-07-28T21:46:30.895Z,99.90
2022-07-28T21:49:04.275Z,99.90
2022-07-28T21:51:31.890Z,99.90
2022-07-28T21:54:01.756Z,99.90
2022-07-28T21:56:30.333Z,99.90
2022-07-28T21:58:57.299Z,99.90
2022-07-28T22:01:24.395Z,99.90
2022-07-28T22:03:51.666Z,99.90
2022-07-28T22:06:18.904Z,99.90
2022-07-28T22:08:45.946Z,99.90
2022-07-28T22:11:12.819Z,99.90
2022-07-28T22:13:39.882Z,99.90
2022-07-28T22:16:07.073Z,99.90
2022-07-28T22:18:34.129Z,99.90
2022-07-28T22:21:01.075Z,99.90
2022-07-28T22:23:28.961Z,99.90
2022-07-28T22:25:56.467Z,99.90
2022-07-28T22:28:29.993Z,99.90
2022-07-28T22:30:58.406Z,99.90
2022-07-28T22:33:26.633Z,99.90
2022-07-28T22:35:53.697Z,99.90
2022-07-28T22:38:20.538Z,99.90
2022-07-28T22:40:47.657Z,99.90
2022-07-28T22:43:14.658Z,99.90
2022-07-28T22:45:50.228Z,99.90
2022-07-28T22:48:18.517Z,99.90
2022-07-28T22:50:45.517Z,99.90
2022-07-28T22:53:12.475Z,99.90
2022-07-28T22:55:40.220Z,99.90
2022-07-28T22:58:07.399Z,99.90
2022-07-28T23:00:36.609Z,99.90
2022-07-28T23:03:04.828Z,99.90
2022-07-28T23:05:32.422Z,99.90
2022-07-28T23:07:59.356Z,99.90
2022-07-28T23:10:27.010Z,99.90
2022-07-28T23:12:57.368Z,99.90
2022-07-28T23:15:40.545Z,99.90
2022-07-28T23:18:10.599Z,99.90
2022-07-28T23:20:38.831Z,99.90
2022-07-28T23:23:05.970Z,99.90
2022-07-28T23:25:35.508Z,99.90
2022-07-28T23:28:02.438Z,99.90
2022-07-28T23:30:29.621Z,99.90
2022-07-28T23:32:56.654Z,99.90
2022-07-28T23:35:23.609Z,99.90
2022-07-28T23:37:50.451Z,99.90
2022-07-28T23:40:17.303Z,99.90
2022-07-28T23:42:44.138Z,99.90
2022-07-28T23:45:11.356Z,99.90
2022-07-28T23:47:38.111Z,99.90
2022-07-28T23:50:05.755Z,99.90
2022-07-28T23:52:32.764Z,99.90
2022-07-28T23:54:59.807Z,99.90
2022-07-28T23:57:31.095Z,99.90
2022-07-28T23:59:59.280Z,99.90
